Time;durP1;ratioP1;P1;durP2;ratioP2;P2;SDS_P1;SDS_P2;PMS_P1;PMS_P2;Temp;Humidity;BMP_temperature;BMP_pressure;BME280_temperature;BME280_humidity;BME280_pressure;Samples;Min_cycle;Max_cycle;Signal;HPM_P1;HPM_P2
2023/10/29 00:00:32;;;;;;;1999.90;999.90;;;;;;;8.85;100.00;93723.19;5007293;28;20171;-60
2023/10/29 00:02:57;;;;;;;1999.90;999.90;;;;;;;8.80;100.00;93726.47;5007710;28;20174;-59
2023/10/29 00:05:23;;;;;;;1999.90;999.90;;;;;;;8.76;100.00;93738.63;5008252;28;20221;-60
2023/10/29 00:07:48;;;;;;;1999.90;999.90;;;;;;;8.75;100.00;93729.69;5008103;28;20171;-60
2023/10/29 00:10:16;;;;;;;1999.90;999.90;;;;;;;8.73;100.00;93731.34;5007450;28;20168;-60
2023/10/29 00:12:41;;;;;;;1999.90;999.90;;;;;;;8.70;100.00;93726.75;5007355;28;20213;-60
2023/10/29 00:15:07;;;;;;;1999.90;999.90;;;;;;;8.64;100.00;93718.34;5007899;28;20199;-60
2023/10/29 00:17:32;;;;;;;1999.90;999.90;;;;;;;8.61;100.00;93713.03;5007458;28;20168;-60
2023/10/29 00:19:59;;;;;;;1999.90;999.90;;;;;;;8.55;100.00;93710.06;5007488;28;20190;-59
2023/10/29 00:22:25;;;;;;;1999.90;999.90;;;;;;;8.52;100.00;93691.88;5007417;28;20402;-60
2023/10/29 00:24:51;;;;;;;1999.90;999.90;;;;;;;8.53;100.00;93695.38;5007592;28;20174;-60
2023/10/29 00:27:16;;;;;;;1999.90;999.90;;;;;;;8.56;100.00;93694.53;5007440;28;20168;-59
2023/10/29 00:29:41;;;;;;;1999.90;999.90;;;;;;;8.55;100.00;93693.75;5009891;28;20171;-59
2023/10/29 00:32:08;;;;;;;1999.90;999.90;;;;;;;8.51;100.00;93695.81;5011380;28;20171;-60
2023/10/29 00:34:33;;;;;;;1999.90;999.90;;;;;;;8.53;100.00;93692.66;5011299;28;20270;-60
2023/10/29 00:36:59;;;;;;;1999.90;999.90;;;;;;;8.49;100.00;93700.91;5011253;28;20355;-59
2023/10/29 00:39:24;;;;;;;1999.90;999.90;;;;;;;8.46;100.00;93701.78;5011148;28;20195;-61
2023/10/29 00:41:49;;;;;;;1999.90;999.90;;;;;;;8.39;100.00;93691.09;5011030;28;20230;-59
2023/10/29 00:44:14;;;;;;;1999.90;999.90;;;;;;;8.36;100.00;93683.81;5011116;28;20175;-60
2023/10/29 00:46:41;;;;;;;1999.90;999.90;;;;;;;8.26;100.00;93676.69;5011206;28;20167;-59
2023/10/29 00:49:08;;;;;;;1999.90;999.90;;;;;;;8.20;100.00;93670.22;5010915;28;20178;-60
2023/10/29 00:51:34;;;;;;;1999.90;999.90;;;;;;;8.14;100.00;93652.91;5010866;28;20174;-59
2023/10/29 00:53:59;;;;;;;1999.90;999.90;;;;;;;8.13;100.00;93650.63;5011389;28;20167;-59
2023/10/29 00:56:25;;;;;;;1999.90;999.90;;;;;;;8.13;100.00;93650.63;5010808;28;20167;-60
2023/10/29 00:58:53;;;;;;;1999.90;999.90;;;;;;;8.02;100.00;93647.44;5011296;28;20167;-59
2023/10/29 01:01:19;;;;;;;1999.90;999.90;;;;;;;7.99;100.00;93624.59;5010687;28;20447;-57
2023/10/29 01:03:44;;;;;;;1999.90;999.90;;;;;;;8.01;100.00;93627.63;5010788;28;20171;-60
2023/10/29 01:06:10;;;;;;;1999.90;999.90;;;;;;;7.99;100.00;93613.72;5010636;28;20178;-60
2023/10/29 01:08:36;;;;;;;1999.90;999.90;;;;;;;7.95;100.00;93610.34;5011197;28;20386;-59
2023/10/29 01:11:04;;;;;;;1999.90;999.90;;;;;;;7.93;100.00;93596.41;5010886;28;20181;-59
2023/10/29 01:13:29;;;;;;;1999.90;999.90;;;;;;;7.92;100.00;93597.63;5010656;28;20167;-59
2023/10/29 01:15:55;;;;;;;1999.90;999.90;;;;;;;7.90;100.00;93589.13;5010496;28;20167;-59
2023/10/29 01:18:20;;;;;;;1999.90;999.90;;;;;;;7.90;100.00;93583.69;5010279;28;20167;-59
2023/10/29 01:20:45;;;;;;;1999.90;999.90;;;;;;;7.94;100.00;93584.34;5010373;28;20186;-59
2023/10/29 01:23:12;;;;;;;1999.90;999.90;;;;;;;7.97;100.00;93578.06;5010253;28;20167;-59
2023/10/29 01:25:38;;;;;;;1999.90;999.90;;;;;;;7.85;100.00;93584.22;5010515;28;20262;-58
2023/10/29 01:28:04;;;;;;;1999.90;999.90;;;;;;;7.83;100.00;93572.25;5010353;28;20171;-58
2023/10/29 01:30:30;;;;;;;1999.90;999.90;;;;;;;7.78;100.00;93576.25;5010180;28;20472;-58
2023/10/29 01:32:55;;;;;;;1999.90;999.90;;;;;;;7.76;100.00;93561.59;5010800;28;20171;-58
2023/10/29 01:35:21;;;;;;;1999.90;999.90;;;;;;;7.72;100.00;93553.53;5010450;28;20202;-58
2023/10/29 01:37:46;;;;;;;1999.90;999.90;;;;;;;7.67;100.00;93535.03;5010185;28;20176;-59
2023/10/29 01:40:13;;;;;;;1999.90;999.90;;;;;;;7.64;100.00;93533.19;5010314;28;20223;-57
2023/10/29 01:42:38;;;;;;;1999.90;999.90;;;;;;;7.61;100.00;93523.16;5010851;28;20261;-58
2023/10/29 01:45:04;;;;;;;1999.90;999.90;;;;;;;7.62;100.00;93518.50;5010452;28;20171;-58
2023/10/29 01:47:29;;;;;;;1999.90;999.90;;;;;;;7.60;100.00;93504.59;5010022;28;20194;-59
2023/10/29 01:49:55;;;;;;;1999.90;999.90;;;;;;;7.59;100.00;93490.25;5009909;28;20167;-59
2023/10/29 01:52:20;;;;;;;1999.90;999.90;;;;;;;7.54;100.00;93490.78;5010462;28;20214;-59
2023/10/29 01:54:45;;;;;;;1999.90;999.90;;;;;;;7.53;100.00;93483.81;5010570;28;20202;-59
2023/10/29 01:57:11;;;;;;;1999.90;999.90;;;;;;;7.54;100.00;93479.91;5010548;28;20201;-59
2023/10/29 01:59:36;;;;;;;1999.90;999.90;;;;;;;7.48;100.00;93480.88;5009829;28;20243;-59
2023/10/29 02:02:02;;;;;;;1999.90;999.90;;;;;;;7.49;100.00;93483.16;5010316;28;20202;-59
2023/10/29 02:04:30;;;;;;;1999.90;999.90;;;;;;;7.44;100.00;93478.28;5009764;28;20359;-59
2023/10/29 02:06:55;;;;;;;1999.90;999.90;;;;;;;7.40;100.00;93474.91;5009634;28;20361;-60
2023/10/29 02:09:22;;;;;;;1999.90;999.90;;;;;;;7.39;100.00;93467.91;5010051;28;20167;-59
2023/10/29 02:11:47;;;;;;;1999.90;999.90;;;;;;;7.40;100.00;93464.03;5009485;28;20164;-59
2023/10/29 02:14:12;;;;;;;1999.90;999.90;;;;;;;7.38;100.00;93466.41;5009492;28;20171;-59
2023/10/29 02:16:38;;;;;;;1999.90;999.90;;;;;;;7.35;100.00;93455.66;5009425;28;20214;-60
2023/10/29 02:19:03;;;;;;;1999.90;999.90;;;;;;;7.29;100.00;93444.56;5009431;28;20239;-59
2023/10/29 02:21:29;;;;;;;1999.90;999.90;;;;;;;7.26;100.00;93448.13;5009711;28;20195;-60
2023/10/29 02:23:55;;;;;;;1999.90;999.90;;;;;;;7.22;100.00;93446.69;5009274;28;20234;-60
2023/10/29 02:26:22;;;;;;;1999.90;999.90;;;;;;;7.16;100.00;93438.31;5009566;28;20175;-59
2023/10/29 02:28:47;;;;;;;1999.90;999.90;;;;;;;7.15;100.00;93436.81;5009617;28;20171;-59
2023/10/29 02:31:20;;;;;;;1999.90;999.90;;;;;;;7.15;100.00;93436.81;5009479;28;20467;-59
2023/10/29 02:33:46;;;;;;;1999.90;999.90;;;;;;;7.18;100.00;93429.75;5009248;28;20182;-58
2023/10/29 02:36:12;;;;;;;1999.90;999.90;;;;;;;7.19;100.00;93423.91;5009599;28;20257;-59
2023/10/29 02:38:38;;;;;;;1999.90;999.90;;;;;;;7.19;100.00;93410.31;5009529;28;20214;-58
2023/10/29 02:41:07;;;;;;;1999.90;999.90;;;;;;;7.20;100.00;93406.41;5005631;28;20227;-59
2023/10/29 02:43:33;;;;;;;1999.90;999.90;;;;;;;7.21;100.00;93407.94;5006436;28;20175;-57
2023/10/29 02:45:58;;;;;;;1999.90;999.90;;;;;;;7.24;100.00;93417.94;5005687;28;20175;-60
2023/10/29 02:48:24;;;;;;;1999.90;999.90;;;;;;;7.30;100.00;93410.78;5005660;28;20168;-59
2023/10/29 02:50:51;;;;;;;1999.90;999.90;;;;;;;7.35;100.00;93410.25;5006196;28;20190;-59
2023/10/29 02:53:17;;;;;;;1999.90;999.90;;;;;;;7.37;100.00;93405.16;5005506;28;20177;-59
2023/10/29 02:55:42;;;;;;;1999.90;999.90;;;;;;;7.37;100.00;93405.16;5005397;28;20168;-59
2023/10/29 02:58:07;;;;;;;1999.90;999.90;;;;;;;7.43;100.00;93405.38;5006106;28;20191;-60
2023/10/29 03:00:33;;;;;;;1999.90;999.90;;;;;;;7.46;100.00;93408.00;5005648;28;20163;-59
2023/10/29 03:02:58;;;;;;;1999.90;999.90;;;;;;;7.58;100.00;93406.50;5005762;28;20204;-59
2023/10/29 03:05:23;;;;;;;1999.90;999.90;;;;;;;7.55;100.00;93418.22;5005615;28;20168;-59
2023/10/29 03:07:49;;;;;;;1999.90;999.90;;;;;;;7.54;100.00;93420.16;5005952;28;20168;-59
2023/10/29 03:10:14;;;;;;;1999.90;999.90;;;;;;;7.63;100.00;93439.31;5005091;28;20207;-59
2023/10/29 03:12:40;;;;;;;1999.90;999.90;;;;;;;7.66;100.00;93454.75;5005143;28;20171;-59
2023/10/29 03:15:06;;;;;;;1999.90;999.90;;;;;;;7.68;100.00;93474.09;5005306;28;20195;-58
2023/10/29 03:17:31;;;;;;;1999.90;999.90;;;;;;;7.77;100.00;93481.59;5005501;28;20260;-59
2023/10/29 03:19:57;;;;;;;1999.90;999.90;;;;;;;7.77;100.00;93506.06;5005016;28;20348;-59
2023/10/29 03:22:22;;;;;;;1999.90;999.90;;;;;;;7.75;100.00;93530.19;5004842;28;20259;-59
2023/10/29 03:24:47;;;;;;;1999.90;999.90;;;;;;;7.70;100.00;93545.06;5004923;28;20167;-59
2023/10/29 03:27:13;;;;;;;1999.90;999.90;;;;;;;7.65;100.00;93567.28;5005335;28;20214;-59
2023/10/29 03:29:38;;;;;;;1999.90;999.90;;;;;;;7.63;100.00;93579.78;5004805;28;20164;-59
2023/10/29 03:32:03;;;;;;;1999.90;999.90;;;;;;;7.68;100.00;93582.75;5004977;28;20167;-59
2023/10/29 03:34:31;;;;;;;1999.90;999.90;;;;;;;7.67;100.00;93597.53;5004989;28;20356;-59
2023/10/29 03:36:56;;;;;;;1999.90;999.90;;;;;;;7.67;100.00;93613.03;5004427;28;20198;-60
2023/10/29 03:39:21;;;;;;;1999.90;999.90;;;;;;;7.65;100.00;93627.06;5004537;28;20195;-59
2023/10/29 03:41:47;;;;;;;1999.90;999.90;;;;;;;7.60;100.00;93638.44;5004718;28;20224;-59
2023/10/29 03:44:12;;;;;;;1999.90;999.90;;;;;;;7.55;100.00;93649.84;5004653;28;20164;-59
2023/10/29 03:46:37;;;;;;;1999.90;999.90;;;;;;;7.51;100.00;93653.81;5004644;28;20175;-59
2023/10/29 03:49:03;;;;;;;1999.90;999.90;;;;;;;7.49;100.00;93662.38;5004954;28;20361;-60
2023/10/29 03:51:28;;;;;;;1999.90;999.90;;;;;;;7.43;100.00;93661.38;5004483;28;20172;-60
2023/10/29 03:53:57;;;;;;;1999.90;999.90;;;;;;;7.39;100.00;93657.97;5004415;28;20252;-60
2023/10/29 03:56:22;;;;;;;1999.90;999.90;;;;;;;7.34;100.00;93650.34;5004542;28;20177;-59
2023/10/29 03:58:48;;;;;;;1999.90;999.90;;;;;;;7.30;100.00;93638.81;5004917;28;20172;-59
2023/10/29 04:01:16;;;;;;;1999.90;999.90;;;;;;;7.25;100.00;93620.31;5004442;28;20206;-59
2023/10/29 04:03:43;;;;;;;1999.90;999.90;;;;;;;7.26;100.00;93605.56;5003635;28;20179;-59
2023/10/29 04:06:10;;;;;;;1999.90;999.90;;;;;;;7.24;100.00;93599.03;5004443;28;20178;-58
2023/10/29 04:08:36;;;;;;;1999.90;999.90;;;;;;;7.23;100.00;93587.41;5004856;28;20176;-59
2023/10/29 04:11:02;;;;;;;1999.90;999.90;;;;;;;7.30;100.00;93603.53;5004329;28;20469;-59
2023/10/29 04:13:27;;;;;;;1999.90;999.90;;;;;;;7.31;100.00;93596.91;5004322;28;20171;-59
2023/10/29 04:15:52;;;;;;;1999.90;999.90;;;;;;;7.32;100.00;93603.84;5004512;28;20164;-59
2023/10/29 04:18:19;;;;;;;1999.90;999.90;;;;;;;7.38;100.00;93607.59;5004178;28;20175;-59
2023/10/29 04:20:44;;;;;;;1999.90;999.90;;;;;;;7.39;100.00;93624.66;5004936;28;20170;-59
2023/10/29 04:23:10;;;;;;;1999.90;999.90;;;;;;;7.41;100.00;93623.03;5004650;28;20179;-59
2023/10/29 04:25:35;;;;;;;1999.90;999.90;;;;;;;7.48;100.00;93628.28;5004708;28;20183;-59
2023/10/29 04:28:01;;;;;;;1999.90;999.90;;;;;;;7.45;100.00;93644.66;5004853;28;20171;-58
2023/10/29 04:30:26;;;;;;;1999.90;999.90;;;;;;;7.50;100.00;93660.44;5004433;28;20177;-58
2023/10/29 04:32:52;;;;;;;1999.90;999.90;;;;;;;7.53;100.00;93668.50;5004105;28;20253;-59
2023/10/29 04:35:18;;;;;;;1999.90;999.90;;;;;;;7.62;100.00;93684.97;5004429;28;20175;-56
2023/10/29 04:37:43;;;;;;;1999.90;999.90;;;;;;;7.64;100.00;93704.31;5004100;28;20341;-59
2023/10/29 04:40:09;;;;;;;1999.90;999.90;;;;;;;7.69;100.00;93724.75;5003805;28;20313;-57
2023/10/29 04:42:34;;;;;;;1999.90;999.90;;;;;;;7.77;100.00;93743.19;5004210;28;20196;-59
2023/10/29 04:44:59;;;;;;;1999.90;999.90;;;;;;;7.83;100.00;93767.91;5004037;28;20171;-59
2023/10/29 04:47:25;;;;;;;1999.90;999.90;;;;;;;7.81;100.00;93786.56;5003938;28;20172;-59
2023/10/29 04:49:50;;;;;;;1999.90;999.90;;;;;;;7.78;100.00;93804.47;5003973;28;20168;-59
2023/10/29 04:52:16;;;;;;;1999.90;999.90;;;;;;;7.77;100.00;93813.06;5004467;28;20178;-59
2023/10/29 04:54:42;;;;;;;1999.90;999.90;;;;;;;7.76;100.00;93823.16;5004475;28;20172;-59
2023/10/29 04:57:08;;;;;;;1999.90;999.90;;;;;;;7.76;100.00;93825.88;5003988;28;20195;-60
2023/10/29 04:59:33;;;;;;;1999.90;999.90;;;;;;;7.76;100.00;93825.88;5003776;28;20204;-59
2023/10/29 05:01:59;;;;;;;1999.90;999.90;;;;;;;7.73;100.00;93842.25;5003762;28;20222;-60
2023/10/29 05:04:24;;;;;;;1999.90;999.90;;;;;;;7.69;100.00;93839.63;5003786;28;20460;-59
2023/10/29 05:06:50;;;;;;;1999.90;999.90;;;;;;;7.67;100.00;93828.41;5003911;28;20170;-59
2023/10/29 05:09:15;;;;;;;1999.90;999.90;;;;;;;7.72;100.00;93838.03;5003501;28;20171;-59
2023/10/29 05:11:40;;;;;;;1999.90;999.90;;;;;;;7.68;100.00;93834.63;5004213;28;20168;-59
2023/10/29 05:14:06;;;;;;;1999.90;999.90;;;;;;;7.76;100.00;93833.28;5004215;28;20173;-59
2023/10/29 05:16:31;;;;;;;1999.90;999.90;;;;;;;7.73;100.00;93829.44;5006792;28;20172;-59
2023/10/29 05:18:57;;;;;;;1999.90;999.90;;;;;;;7.75;100.00;93826.31;5007330;28;20164;-60
2023/10/29 05:21:22;;;;;;;1999.90;999.90;;;;;;;7.74;100.00;93836.41;5007260;28;20199;-59
2023/10/29 05:23:48;;;;;;;1999.90;999.90;;;;;;;7.78;100.00;93833.59;5007920;28;20175;-59
2023/10/29 05:26:13;;;;;;;1999.90;999.90;;;;;;;7.86;100.00;93830.28;5007690;28;20188;-59
2023/10/29 05:28:38;;;;;;;1999.90;999.90;;;;;;;7.77;100.00;93824.69;5007146;28;20172;-59
2023/10/29 05:31:04;;;;;;;1999.90;999.90;;;;;;;7.77;100.00;93823.94;5007103;28;20252;-60
2023/10/29 05:33:29;;;;;;;1999.90;999.90;;;;;;;7.85;100.00;93828.78;5006999;28;20172;-60
2023/10/29 05:35:57;;;;;;;1999.90;999.90;;;;;;;7.87;100.00;93834.53;5007556;28;20171;-60
2023/10/29 05:38:22;;;;;;;1999.90;999.90;;;;;;;7.93;100.00;93837.50;5007009;28;20243;-60
2023/10/29 05:40:48;;;;;;;1999.90;999.90;;;;;;;7.98;100.00;93854.06;5006867;28;20223;-59
2023/10/29 05:43:13;;;;;;;1999.90;999.90;;;;;;;7.98;100.00;93864.94;5007309;28;20171;-59
2023/10/29 05:45:38;;;;;;;1999.90;999.90;;;;;;;8.01;100.00;93880.41;5007140;28;20168;-60
2023/10/29 05:48:03;;;;;;;1999.90;999.90;;;;;;;8.10;100.00;93891.47;5007225;28;20349;-61
2023/10/29 05:50:29;;;;;;;1999.90;999.90;;;;;;;8.18;100.00;93906.44;5007183;28;20398;-60
2023/10/29 05:52:54;;;;;;;1999.90;999.90;;;;;;;8.20;100.00;93909.47;5007331;28;20207;-60
2023/10/29 05:55:22;;;;;;;1999.90;999.90;;;;;;;8.15;100.00;93918.16;5007169;28;20166;-60
2023/10/29 05:57:47;;;;;;;1999.90;999.90;;;;;;;8.23;100.00;93932.38;5006527;28;20222;-60
2023/10/29 06:00:15;;;;;;;1999.90;999.90;;;;;;;8.20;100.00;93939.38;5006547;28;20164;-60
2023/10/29 06:02:40;;;;;;;1999.90;999.90;;;;;;;8.20;100.00;93939.38;5006055;28;20287;-60
2023/10/29 06:05:06;;;;;;;1999.90;999.90;;;;;;;8.36;100.00;93946.81;5006980;28;20206;-60
2023/10/29 06:07:31;;;;;;;1999.90;999.90;;;;;;;8.37;100.00;93951.06;5006395;28;20172;-60
2023/10/29 06:09:56;;;;;;;1999.90;999.90;;;;;;;8.47;100.00;93956.28;5006484;28;20168;-61
2023/10/29 06:12:22;;;;;;;1999.90;999.90;;;;;;;8.70;100.00;93971.66;5006359;28;20176;-60
2023/10/29 06:14:48;;;;;;;1999.90;999.90;;;;;;;9.25;100.00;93979.59;5006391;28;20383;-60
2023/10/29 06:17:13;;;;;;;1999.90;999.90;;;;;;;9.59;100.00;94004.38;5005855;28;20168;-60
2023/10/29 06:19:39;;;;;;;1999.90;999.90;;;;;;;9.81;100.00;94010.78;5006284;28;20172;-59
2023/10/29 06:22:08;;;;;;;1999.90;999.90;;;;;;;9.76;100.00;94025.69;5006458;28;20188;-60
2023/10/29 06:24:34;;;;;;;1999.90;999.90;;;;;;;9.61;100.00;94032.72;5006908;28;20177;-59
2023/10/29 06:26:59;;;;;;;1999.90;999.90;;;;;;;9.72;100.00;94021.53;5005813;28;20236;-59
2023/10/29 06:29:25;;;;;;;1999.90;999.90;;;;;;;10.11;100.00;94023.97;5006008;28;20181;-60
2023/10/29 06:31:50;;;;;;;1999.90;999.90;;;;;;;10.30;100.00;94035.91;5006566;28;20245;-59
2023/10/29 06:34:15;;;;;;;1999.90;999.90;;;;;;;10.79;100.00;94039.84;5005953;28;20253;-59
2023/10/29 06:36:41;;;;;;;1999.90;999.90;;;;;;;10.99;100.00;94048.56;5005856;28;20185;-60
2023/10/29 06:39:06;;;;;;;1999.90;999.90;;;;;;;11.11;100.00;94053.28;5005673;28;20194;-59
2023/10/29 06:41:31;;;;;;;1999.90;999.90;;;;;;;11.51;100.00;94052.31;5005376;28;20229;-59
2023/10/29 06:43:57;;;;;;;1999.90;999.90;;;;;;;12.06;100.00;94064.53;5005831;28;20175;-59
2023/10/29 06:46:22;;;;;;;1999.90;999.90;;;;;;;11.81;100.00;94075.56;5005715;28;20248;-59
2023/10/29 06:48:48;;;;;;;1999.90;999.90;;;;;;;11.65;100.00;94078.47;5005819;28;20182;-58
2023/10/29 06:51:15;;;;;;;1999.90;999.90;;;;;;;11.36;100.00;94083.31;5005640;28;20178;-57
2023/10/29 06:53:41;;;;;;;1999.90;999.90;;;;;;;11.56;100.00;94087.31;5005609;28;20252;-59
2023/10/29 06:56:06;;;;;;;1999.90;999.90;;;;;;;12.43;100.00;94090.94;5006107;28;20178;-58
2023/10/29 06:58:33;;;;;;;1999.90;999.90;;;;;;;13.76;100.00;94087.72;5005483;28;20175;-58
2023/10/29 07:01:05;;;;;;;1999.90;999.90;;;;;;;14.92;100.00;94089.63;5005430;28;20204;-58
2023/10/29 07:03:32;;;;;;;1999.90;999.90;;;;;;;14.86;100.00;94101.72;5005473;28;20184;-57
2023/10/29 07:06:08;;;;;;;1999.90;999.90;;;;;;;15.51;100.00;94097.06;5005408;28;20176;-59
2023/10/29 07:08:35;;;;;;;1999.90;999.90;;;;;;;16.21;100.00;94088.06;5005333;28;20271;-59
2023/10/29 07:11:01;;;;;;;1999.90;999.90;;;;;;;15.66;100.00;94092.41;5005237;28;20178;-57
2023/10/29 07:13:27;;;;;;;1999.90;999.90;;;;;;;16.18;100.00;94086.22;5005033;28;20207;-57
2023/10/29 07:15:53;;;;;;;1999.90;999.90;;;;;;;17.34;100.00;94087.59;5005160;28;20171;-58
2023/10/29 07:18:19;;;;;;;1999.90;999.90;;;;;;;18.11;100.00;94077.66;5005700;28;20179;-57
2023/10/29 07:20:45;;;;;;;1999.90;999.90;;;;;;;18.83;100.00;94088.31;5005488;28;20176;-57
2023/10/29 07:23:10;;;;;;;1999.90;999.90;;;;;;;19.03;100.00;94095.81;5005524;28;20176;-58
2023/10/29 07:25:36;;;;;;;1999.90;999.90;;;;;;;19.43;100.00;94099.22;5005331;28;20179;-60
2023/10/29 07:28:01;;;;;;;1999.90;999.90;;;;;;;19.81;100.00;94100.72;5005271;28;20172;-58
2023/10/29 07:30:27;;;;;;;1999.90;999.90;;;;;;;20.15;96.30;94099.72;5005250;28;20168;-59
2023/10/29 07:32:53;;;;;;;1999.90;999.90;;;;;;;19.96;95.71;94104.09;5004842;28;20176;-59
2023/10/29 07:35:18;;;;;;;1999.90;999.90;;;;;;;19.06;96.14;94103.13;5005188;28;20195;-56
2023/10/29 07:37:43;;;;;;;1999.90;999.90;;;;;;;19.50;97.85;94111.84;5004975;28;20175;-58
2023/10/29 07:40:09;;;;;;;1999.90;999.90;;;;;;;18.53;100.00;94113.88;5004800;28;20238;-58
2023/10/29 07:42:34;;;;;;;1999.90;999.90;;;;;;;17.25;100.00;94118.03;5005195;28;20203;-58
2023/10/29 07:45:00;;;;;;;1999.90;999.90;;;;;;;16.04;100.00;94114.53;5004722;28;20178;-60
2023/10/29 07:47:25;;;;;;;1999.90;999.90;;;;;;;15.41;100.00;94125.84;5004707;28;20168;-60
2023/10/29 07:49:50;;;;;;;1999.90;999.90;;;;;;;15.20;100.00;94126.84;5005319;28;20170;-59
2023/10/29 07:52:16;;;;;;;1999.90;999.90;;;;;;;15.33;100.00;94124.63;5004500;28;20255;-59
2023/10/29 07:54:42;;;;;;;1999.90;999.90;;;;;;;16.30;100.00;94129.31;5004274;28;20183;-59
2023/10/29 07:57:07;;;;;;;1999.90;999.90;;;;;;;17.14;100.00;94128.88;5004474;28;20175;-59
2023/10/29 07:59:34;;;;;;;1999.90;999.90;;;;;;;17.98;100.00;94129.72;5004361;28;20222;-59
2023/10/29 08:01:59;;;;;;;1999.90;999.90;;;;;;;18.64;100.00;94131.38;5004887;28;20203;-58
2023/10/29 08:04:26;;;;;;;1999.90;999.90;;;;;;;19.10;100.00;94134.88;5004325;28;20171;-58
2023/10/29 08:06:52;;;;;;;1999.90;999.90;;;;;;;19.37;100.00;94128.09;5004360;28;20168;-58
2023/10/29 08:09:17;;;;;;;1999.90;999.90;;;;;;;19.74;97.67;94134.44;5004586;28;20226;-60
2023/10/29 08:11:42;;;;;;;1999.90;999.90;;;;;;;19.85;98.71;94126.19;5004174;28;20255;-58
2023/10/29 08:14:08;;;;;;;1999.90;999.90;;;;;;;19.96;96.75;94131.81;5004531;28;20168;-58
2023/10/29 08:16:33;;;;;;;1999.90;999.90;;;;;;;20.21;94.88;94130.97;5004705;28;20175;-59
2023/10/29 08:18:59;;;;;;;1999.90;999.90;;;;;;;20.17;94.63;94141.56;5004252;28;20172;-58
2023/10/29 08:21:24;;;;;;;1999.90;999.90;;;;;;;20.37;94.41;94141.44;5004691;28;20199;-58
2023/10/29 08:23:49;;;;;;;1999.90;999.90;;;;;;;20.50;92.43;94140.97;5004530;28;20171;-58
2023/10/29 08:26:16;;;;;;;1999.90;999.90;;;;;;;20.29;95.44;94137.56;5004082;28;20176;-58
2023/10/29 08:28:41;;;;;;;1999.90;999.90;;;;;;;20.25;96.33;94130.78;5004638;28;20180;-57
2023/10/29 08:31:08;;;;;;;1999.90;999.90;;;;;;;20.33;95.29;94121.50;5004503;28;20247;-58
2023/10/29 08:33:34;;;;;;;1999.90;999.90;;;;;;;20.64;90.75;94129.69;5004612;28;20174;-58
2023/10/29 08:35:59;;;;;;;1999.90;999.90;;;;;;;20.77;91.11;94118.88;5004190;28;20168;-58
2023/10/29 08:38:25;;;;;;;1999.90;999.90;;;;;;;20.94;90.64;94127.28;5004399;28;20215;-58
2023/10/29 08:40:50;;;;;;;1999.90;999.90;;;;;;;21.08;88.92;94135.41;5003945;28;20224;-58
2023/10/29 08:43:16;;;;;;;1999.90;999.90;;;;;;;21.04;91.99;94132.09;5004474;28;20176;-58
2023/10/29 08:45:41;;;;;;;1999.90;999.90;;;;;;;21.08;92.19;94135.41;5004031;28;20183;-57
2023/10/29 08:48:07;;;;;;;1999.90;999.90;;;;;;;20.98;89.34;94147.97;5003910;28;20251;-57
2023/10/29 08:50:32;;;;;;;1999.90;999.90;;;;;;;21.28;93.87;94149.09;5005627;28;20176;-57
2023/10/29 08:52:58;;;;;;;1999.90;999.90;;;;;;;21.62;92.48;94156.19;5007515;28;20180;-58
2023/10/29 08:55:23;;;;;;;1999.90;999.90;;;;;;;21.83;93.64;94151.91;5008253;28;20183;-58
2023/10/29 08:57:49;;;;;;;1999.90;999.90;;;;;;;21.86;90.16;94150.88;5008157;28;20279;-58
2023/10/29 09:00:15;;;;;;;1999.90;999.90;;;;;;;22.05;89.23;94159.47;5008134;28;20179;-58
2023/10/29 09:02:40;;;;;;;1999.90;999.90;;;;;;;22.36;82.92;94151.59;5007530;28;20204;-58
2023/10/29 09:05:07;;;;;;;1999.90;999.90;;;;;;;22.37;76.54;94152.34;5007634;28;20176;-58
2023/10/29 09:07:33;;;;;;;1999.90;999.90;;;;;;;22.32;71.24;94156.66;5007484;28;20223;-58
2023/10/29 09:09:58;;;;;;;1999.90;999.90;;;;;;;22.61;67.46;94155.31;5007592;28;20203;-59
2023/10/29 09:12:25;;;;;;;1999.90;999.90;;;;;;;22.33;67.53;94163.72;5007908;28;20179;-58
2023/10/29 09:14:50;;;;;;;1999.90;999.90;;;;;;;21.86;67.71;94159.22;5008161;28;20203;-58
2023/10/29 09:17:16;;;;;;;1999.90;999.90;;;;;;;21.88;68.94;94156.72;5007311;28;20176;-58
2023/10/29 09:19:41;;;;;;;1999.90;999.90;;;;;;;21.82;66.64;94163.53;5007607;28;20200;-59
2023/10/29 09:22:06;;;;;;;1999.90;999.90;;;;;;;21.42;69.75;94164.72;5007627;28;20210;-59
2023/10/29 09:24:32;;;;;;;1999.90;999.90;;;;;;;21.27;70.61;94158.66;5007964;28;20176;-59
2023/10/29 09:26:57;;;;;;;1999.90;999.90;;;;;;;21.16;70.54;94158.63;5007684;28;20207;-59
2023/10/29 09:29:24;;;;;;;1999.90;999.90;;;;;;;20.92;72.61;94172.22;5007881;28;20255;-59
2023/10/29 09:31:51;;;;;;;1999.90;999.90;;;;;;;20.52;75.05;94171.75;5007129;28;20172;-59
2023/10/29 09:34:20;;;;;;;1999.90;999.90;;;;;;;20.43;76.63;94172.72;5006985;28;20180;-59
2023/10/29 09:36:45;;;;;;;1999.90;999.90;;;;;;;20.38;79.76;94170.66;5006842;28;20175;-58
2023/10/29 09:39:10;;;;;;;1999.90;999.90;;;;;;;20.86;79.95;94163.06;5006823;28;20198;-57
2023/10/29 09:41:43;;;;;;;1999.90;999.90;;;;;;;21.32;73.24;94155.16;5006633;28;20295;-59
2023/10/29 09:44:15;;;;;;;1999.90;999.90;;;;;;;21.76;71.08;94158.00;5007237;28;20180;-57
2023/10/29 09:46:43;;;;;;;1999.90;999.90;;;;;;;22.39;68.87;94150.56;5007265;28;20214;-58
2023/10/29 09:49:08;;;;;;;1999.90;999.90;;;;;;;22.72;64.05;94146.19;5007019;28;20180;-58
2023/10/29 09:51:34;;;;;;;1999.90;999.90;;;;;;;23.14;63.95;94134.59;5006991;28;20178;-59
2023/10/29 09:54:00;;;;;;;1999.90;999.90;;;;;;;23.15;61.12;94144.44;5006707;28;20180;-58
2023/10/29 09:56:26;;;;;;;1999.90;999.90;;;;;;;23.29;61.01;94146.94;5006618;28;20249;-58
2023/10/29 09:58:52;;;;;;;1999.90;999.90;;;;;;;23.79;60.70;94154.97;5007152;28;20180;-58
2023/10/29 10:01:17;;;;;;;1999.90;999.90;;;;;;;23.78;56.70;94156.25;5005949;28;20230;-58
2023/10/29 10:03:45;;;;;;;1999.90;999.90;;;;;;;24.55;55.04;94163.94;5006958;28;20210;-57
2023/10/29 10:06:13;;;;;;;1999.90;999.90;;;;;;;24.24;54.84;94156.09;5006268;28;20199;-56
2023/10/29 10:08:38;;;;;;;1999.90;999.90;;;;;;;23.28;56.52;94155.81;5006369;28;20172;-58
2023/10/29 10:11:04;;;;;;;1999.90;999.90;;;;;;;22.76;58.66;94149.47;5006732;28;20168;-58
2023/10/29 10:13:41;;;;;;;1999.90;999.90;;;;;;;22.46;60.80;94152.81;5006386;28;20202;-57
2023/10/29 10:16:07;;;;;;;1999.90;999.90;;;;;;;22.54;61.27;94157.91;5006832;28;20195;-57
2023/10/29 10:18:47;;;;;;;1999.90;999.90;;;;;;;22.64;59.90;94147.97;5006949;28;20183;-58
2023/10/29 10:21:12;;;;;;;1999.90;999.90;;;;;;;22.72;60.70;94157.34;5005794;28;20215;-58
2023/10/29 10:23:48;;;;;;;1999.90;999.90;;;;;;;22.94;59.65;94154.47;5005996;28;20176;-58
2023/10/29 10:26:14;;;;;;;1999.90;999.90;;;;;;;22.94;58.28;94144.06;5006079;28;20199;-58
2023/10/29 10:28:56;;;;;;;1999.90;999.90;;;;;;;22.90;58.62;94149.13;5006659;28;20172;-58
2023/10/29 10:31:22;;;;;;;1999.90;999.90;;;;;;;22.68;59.96;94149.22;5006024;28;20526;-58
2023/10/29 10:33:49;;;;;;;1999.90;999.90;;;;;;;22.76;59.47;94146.69;5006516;28;20176;-56
2023/10/29 10:36:14;;;;;;;1999.90;999.90;;;;;;;22.97;59.81;94147.84;5005847;28;20247;-59
2023/10/29 10:38:52;;;;;;;1999.90;999.90;;;;;;;23.79;56.05;94143.81;5005932;28;20195;-57
2023/10/29 10:41:17;;;;;;;1999.90;999.90;;;;;;;24.47;56.37;94147.00;5005502;28;20227;-58
2023/10/29 10:43:43;;;;;;;1999.90;999.90;;;;;;;24.46;52.93;94142.69;5005518;28;20252;-57
2023/10/29 10:46:13;;;;;;;1999.90;999.90;;;;;;;24.46;52.93;94142.69;5006246;28;20176;-56